Russiaville, IN (46979)

1:01 PM EDT on October 02, 2014 (GMT -0400)
Russiaville Fire Department | Change Station
CLOSE
Current Station
Personal Weather Station
Location: Russiaville, IN
Elevation: 846 ft
Nearby Weather Stations

Elev 846 ft 40.42 °N, 86.27 °W | Updated 5 seconds ago

Partly Cloudy
Partly Cloudy
74.3 °F
Feels Like 76 °F
N
11.4
Wind Variable Wind from SSW
Gusts 15.0 mph

Today
High -- | Low -- °F
--% Chance of Precip.
Yesterday
High -- | Low -- °F
Precip. -- in
7:42 AM 7:25 PM
First Quarter, 60% visible
Pressure 29.91 in
Visibility 10.0 miles
Clouds Scattered Clouds 11000 ft
Heat Index 76 °F
Dew Point 62 °F
Humidity 66%
Rainfall 0.05 in
Snow Depth Not available.
UV 5 out of 12
Pollen 4.50 out of 12
Air Quality Not available.
Flu Activity Not available.
METAR KOKK 021655Z AUTO 20017G27KT 10SM SCT110 26/16 A2991 RMK AO1

More Conditions Fewer Conditions

Pressure 29.91 in
Visibility 10.0 miles
Clouds Scattered Clouds 11000 ft
Heat Index 76 °F
Dew Point 62 °F
Humidity 66%
Rainfall 0.05 in
Snow Depth Not available.
UV 5 out of 12
Pollen 4.50 out of 12
Air Quality Not available.
Flu Activity Not available.
METAR KOKK 021655Z AUTO 20017G27KT 10SM SCT110 26/16 A2991 RMK AO1

More Conditions Fewer Conditions

10-Day Weather Forecast

Almanac

Astronomy

Oct. 02, 2014 Rise Set
Actual Time 7:42 AM EDT 7:25 PM EDT
Civil Twilight 7:15 AM EDT 7:52 PM EDT
Nautical Twilight 6:43 AM EDT 8:24 PM EDT
Astronomical Twilight 6:11 AM EDT 8:56 PM EDT
Moon 3:32 PM EDT 12:57 AM EDT
Length of Visible Light 12h 37m
Length of Day
11h 43m
Tomorrow will be 2m 38s shorter.
First Quarter, 60% of the Moon is Illuminated
Today
First Quarter
Oct 8
Full
Oct 15
Last Quarter
Oct 23
New
Oct 30
First Quarter

Today's Extremes

State Highs State Lows

Community

WunderPhotos

Upload Photos

1,758,298 photos uploaded!

Nearby

Snow Depth

Station Depth Elevation
No new snow has been reported.

Earthquake Activity

City Distance Mag. Time & Date
No recent earthquake activity has been reported nearby.
Minimum magnitude displayed is 2.5.

Coastal Water Temperatures

Place Temperature
No Stations Reporting

Nearby Weather Stations